sensor_id;sensor_type;location;lat;lon;timestamp;P1;durP1;ratioP1;P2;durP2;ratioP2
61487;SDS011;47351;53.326;-6.298;2024-02-21T00:00:18;4.60;;;1.20;;
61487;SDS011;47351;53.326;-6.298;2024-02-21T00:03:14;4.50;;;1.30;;
61487;SDS011;47351;53.326;-6.298;2024-02-21T00:06:09;6.20;;;1.20;;
61487;SDS011;47351;53.326;-6.298;2024-02-21T00:09:22;5.30;;;1.10;;
61487;SDS011;47351;53.326;-6.298;2024-02-21T00:12:28;3.80;;;1.10;;
61487;SDS011;47351;53.326;-6.298;2024-02-21T00:15:20;4.60;;;1.10;;
61487;SDS011;47351;53.326;-6.298;2024-02-21T00:18:33;6.80;;;1.20;;
61487;SDS011;47351;53.326;-6.298;2024-02-21T00:21:39;3.60;;;1.20;;
61487;SDS011;47351;53.326;-6.298;2024-02-21T00:24:42;6.20;;;1.30;;
61487;SDS011;47351;53.326;-6.298;2024-02-21T00:27:35;7.90;;;1.30;;
61487;SDS011;47351;53.326;-6.298;2024-02-21T00:30:28;6.50;;;1.20;;
61487;SDS011;47351;53.326;-6.298;2024-02-21T00:33:20;5.70;;;1.60;;
61487;SDS011;47351;53.326;-6.298;2024-02-21T00:36:33;5.00;;;1.00;;
61487;SDS011;47351;53.326;-6.298;2024-02-21T00:39:35;6.90;;;1.30;;
61487;SDS011;47351;53.326;-6.298;2024-02-21T00:42:28;4.30;;;1.10;;
61487;SDS011;47351;53.326;-6.298;2024-02-21T00:45:23;4.10;;;1.00;;
61487;SDS011;47351;53.326;-6.298;2024-02-21T00:48:25;4.30;;;1.10;;
61487;SDS011;47351;53.326;-6.298;2024-02-21T00:51:30;3.80;;;1.00;;
61487;SDS011;47351;53.326;-6.298;2024-02-21T00:54:35;6.00;;;1.30;;
61487;SDS011;47351;53.326;-6.298;2024-02-21T00:58:00;8.70;;;1.30;;
61487;SDS011;47351;53.326;-6.298;2024-02-21T01:01:07;5.00;;;1.40;;
61487;SDS011;47351;53.326;-6.298;2024-02-21T01:04:18;3.90;;;1.50;;
61487;SDS011;47351;53.326;-6.298;2024-02-21T01:07:14;3.80;;;1.20;;
61487;SDS011;47351;53.326;-6.298;2024-02-21T01:10:29;4.10;;;1.00;;
61487;SDS011;47351;53.326;-6.298;2024-02-21T01:13:37;5.70;;;1.60;;
61487;SDS011;47351;53.326;-6.298;2024-02-21T01:16:51;7.90;;;1.60;;
61487;SDS011;47351;53.326;-6.298;2024-02-21T01:19:58;7.50;;;1.50;;
61487;SDS011;47351;53.326;-6.298;2024-02-21T01:22:54;5.80;;;1.50;;
61487;SDS011;47351;53.326;-6.298;2024-02-21T01:25:49;4.90;;;1.60;;
61487;SDS011;47351;53.326;-6.298;2024-02-21T01:28:56;5.70;;;1.50;;
61487;SDS011;47351;53.326;-6.298;2024-02-21T01:31:49;4.10;;;1.30;;
61487;SDS011;47351;53.326;-6.298;2024-02-21T01:35:02;5.70;;;1.50;;
61487;SDS011;47351;53.326;-6.298;2024-02-21T01:38:01;5.40;;;1.90;;
61487;SDS011;47351;53.326;-6.298;2024-02-21T01:41:14;6.80;;;1.30;;
61487;SDS011;47351;53.326;-6.298;2024-02-21T01:44:17;6.20;;;1.60;;
61487;SDS011;47351;53.326;-6.298;2024-02-21T01:47:23;7.60;;;1.80;;
61487;SDS011;47351;53.326;-6.298;2024-02-21T01:50:30;7.80;;;1.70;;
61487;SDS011;47351;53.326;-6.298;2024-02-21T01:53:29;6.50;;;1.80;;
61487;SDS011;47351;53.326;-6.298;2024-02-21T01:56:46;7.90;;;2.00;;
61487;SDS011;47351;53.326;-6.298;2024-02-21T01:59:40;5.40;;;1.40;;
61487;SDS011;47351;53.326;-6.298;2024-02-21T02:02:35;5.90;;;1.70;;
61487;SDS011;47351;53.326;-6.298;2024-02-21T02:05:47;5.50;;;1.70;;
61487;SDS011;47351;53.326;-6.298;2024-02-21T02:08:45;5.70;;;1.50;;
61487;SDS011;47351;53.326;-6.298;2024-02-21T02:11:51;7.50;;;1.90;;
61487;SDS011;47351;53.326;-6.298;2024-02-21T02:14:44;6.30;;;1.90;;
61487;SDS011;47351;53.326;-6.298;2024-02-21T02:17:50;6.10;;;1.90;;
61487;SDS011;47351;53.326;-6.298;2024-02-21T02:20:56;5.80;;;2.10;;
61487;SDS011;47351;53.326;-6.298;2024-02-21T02:23:58;6.60;;;1.80;;
61487;SDS011;47351;53.326;-6.298;2024-02-21T02:26:51;4.50;;;1.90;;
61487;SDS011;47351;53.326;-6.298;2024-02-21T02:29:56;11.50;;;6.40;;
61487;SDS011;47351;53.326;-6.298;2024-02-21T02:33:02;6.30;;;1.50;;
61487;SDS011;47351;53.326;-6.298;2024-02-21T02:36:15;3.80;;;1.50;;
61487;SDS011;47351;53.326;-6.298;2024-02-21T02:39:29;5.10;;;1.60;;
61487;SDS011;47351;53.326;-6.298;2024-02-21T02:42:35;5.80;;;1.50;;
61487;SDS011;47351;53.326;-6.298;2024-02-21T02:45:32;2.40;;;1.00;;
61487;SDS011;47351;53.326;-6.298;2024-02-21T02:48:45;0.70;;;0.60;;
61487;SDS011;47351;53.326;-6.298;2024-02-21T02:51:42;0.80;;;0.50;;
61487;SDS011;47351;53.326;-6.298;2024-02-21T02:54:49;0.40;;;0.30;;
61487;SDS011;47351;53.326;-6.298;2024-02-21T02:57:48;0.40;;;0.40;;
61487;SDS011;47351;53.326;-6.298;2024-02-21T03:00:43;1.70;;;0.40;;
61487;SDS011;47351;53.326;-6.298;2024-02-21T03:03:38;0.30;;;0.30;;
61487;SDS011;47351;53.326;-6.298;2024-02-21T03:06:34;0.30;;;0.30;;
61487;SDS011;47351;53.326;-6.298;2024-02-21T03:09:27;0.50;;;0.40;;
61487;SDS011;47351;53.326;-6.298;2024-02-21T03:12:39;0.30;;;0.30;;
61487;SDS011;47351;53.326;-6.298;2024-02-21T03:15:45;0.30;;;0.30;;
61487;SDS011;47351;53.326;-6.298;2024-02-21T03:18:47;0.60;;;0.40;;
61487;SDS011;47351;53.326;-6.298;2024-02-21T03:21:59;0.40;;;0.40;;
61487;SDS011;47351;53.326;-6.298;2024-02-21T03:25:00;0.80;;;0.60;;
61487;SDS011;47351;53.326;-6.298;2024-02-21T03:27:56;0.60;;;0.60;;
61487;SDS011;47351;53.326;-6.298;2024-02-21T03:31:02;1.40;;;0.50;;
61487;SDS011;47351;53.326;-6.298;2024-02-21T03:34:15;1.10;;;0.40;;
61487;SDS011;47351;53.326;-6.298;2024-02-21T03:37:22;0.80;;;0.40;;
61487;SDS011;47351;53.326;-6.298;2024-02-21T03:40:17;0.50;;;0.50;;
61487;SDS011;47351;53.326;-6.298;2024-02-21T03:43:28;0.70;;;0.60;;
61487;SDS011;47351;53.326;-6.298;2024-02-21T03:46:39;1.30;;;0.60;;
61487;SDS011;47351;53.326;-6.298;2024-02-21T03:49:51;0.40;;;0.40;;
61487;SDS011;47351;53.326;-6.298;2024-02-21T03:53:04;0.60;;;0.60;;
61487;SDS011;47351;53.326;-6.298;2024-02-21T03:56:09;0.90;;;0.80;;
61487;SDS011;47351;53.326;-6.298;2024-02-21T03:59:22;0.50;;;0.50;;
61487;SDS011;47351;53.326;-6.298;2024-02-21T04:02:35;0.60;;;0.60;;
61487;SDS011;47351;53.326;-6.298;2024-02-21T04:05:43;0.40;;;0.40;;
61487;SDS011;47351;53.326;-6.298;2024-02-21T04:08:57;0.50;;;0.50;;
61487;SDS011;47351;53.326;-6.298;2024-02-21T04:12:00;0.70;;;0.40;;
61487;SDS011;47351;53.326;-6.298;2024-02-21T04:15:07;0.40;;;0.40;;
61487;SDS011;47351;53.326;-6.298;2024-02-21T04:18:11;0.40;;;0.40;;
61487;SDS011;47351;53.326;-6.298;2024-02-21T04:21:16;0.30;;;0.30;;
61487;SDS011;47351;53.326;-6.298;2024-02-21T04:24:26;0.40;;;0.40;;
61487;SDS011;47351;53.326;-6.298;2024-02-21T04:27:21;0.30;;;0.30;;
61487;SDS011;47351;53.326;-6.298;2024-02-21T04:30:27;0.40;;;0.40;;
61487;SDS011;47351;53.326;-6.298;2024-02-21T04:33:32;1.20;;;0.40;;
61487;SDS011;47351;53.326;-6.298;2024-02-21T04:36:38;0.30;;;0.30;;
61487;SDS011;47351;53.326;-6.298;2024-02-21T04:39:44;0.30;;;0.30;;
61487;SDS011;47351;53.326;-6.298;2024-02-21T04:42:57;0.30;;;0.30;;
61487;SDS011;47351;53.326;-6.298;2024-02-21T04:46:09;0.20;;;0.20;;
61487;SDS011;47351;53.326;-6.298;2024-02-21T04:49:22;0.20;;;0.20;;
61487;SDS011;47351;53.326;-6.298;2024-02-21T04:52:35;1.10;;;0.30;;
61487;SDS011;47351;53.326;-6.298;2024-02-21T04:55:39;0.20;;;0.20;;
61487;SDS011;47351;53.326;-6.298;2024-02-21T04:58:45;0.30;;;0.30;;
61487;SDS011;47351;53.326;-6.298;2024-02-21T05:01:51;0.30;;;0.30;;
61487;SDS011;47351;53.326;-6.298;2024-02-21T05:04:57;0.40;;;0.40;;
61487;SDS011;47351;53.326;-6.298;2024-02-21T05:07:54;0.30;;;0.30;;
61487;SDS011;47351;53.326;-6.298;2024-02-21T05:11:07;0.20;;;0.20;;
61487;SDS011;47351;53.326;-6.298;2024-02-21T05:14:00;0.20;;;0.20;;
61487;SDS011;47351;53.326;-6.298;2024-02-21T05:17:14;0.70;;;0.20;;
61487;SDS011;47351;53.326;-6.298;2024-02-21T05:20:27;0.30;;;0.30;;
61487;SDS011;47351;53.326;-6.298;2024-02-21T05:23:31;0.40;;;0.20;;
61487;SDS011;47351;53.326;-6.298;2024-02-21T05:26:37;0.30;;;0.30;;
61487;SDS011;47351;53.326;-6.298;2024-02-21T05:29:50;0.90;;;0.30;;
61487;SDS011;47351;53.326;-6.298;2024-02-21T05:32:49;0.20;;;0.20;;
61487;SDS011;47351;53.326;-6.298;2024-02-21T05:35:47;0.60;;;0.20;;
61487;SDS011;47351;53.326;-6.298;2024-02-21T05:38:43;0.20;;;0.20;;
61487;SDS011;47351;53.326;-6.298;2024-02-21T05:41:49;0.20;;;0.20;;
61487;SDS011;47351;53.326;-6.298;2024-02-21T05:44:55;0.30;;;0.20;;
61487;SDS011;47351;53.326;-6.298;2024-02-21T05:47:51;0.20;;;0.20;;
61487;SDS011;47351;53.326;-6.298;2024-02-21T05:51:02;0.20;;;0.20;;
61487;SDS011;47351;53.326;-6.298;2024-02-21T05:54:15;0.20;;;0.20;;
61487;SDS011;47351;53.326;-6.298;2024-02-21T05:57:28;0.20;;;0.20;;
61487;SDS011;47351;53.326;-6.298;2024-02-21T06:00:25;0.10;;;0.10;;
61487;SDS011;47351;53.326;-6.298;2024-02-21T06:03:17;0.20;;;0.20;;
61487;SDS011;47351;53.326;-6.298;2024-02-21T06:06:30;0.50;;;0.30;;
61487;SDS011;47351;53.326;-6.298;2024-02-21T06:09:29;0.20;;;0.20;;
61487;SDS011;47351;53.326;-6.298;2024-02-21T06:12:33;0.50;;;0.20;;
61487;SDS011;47351;53.326;-6.298;2024-02-21T06:15:47;0.60;;;0.50;;
61487;SDS011;47351;53.326;-6.298;2024-02-21T06:18:45;0.30;;;0.30;;
61487;SDS011;47351;53.326;-6.298;2024-02-21T06:21:42;0.30;;;0.30;;
61487;SDS011;47351;53.326;-6.298;2024-02-21T06:24:38;0.30;;;0.30;;
61487;SDS011;47351;53.326;-6.298;2024-02-21T06:27:31;0.20;;;0.20;;
61487;SDS011;47351;53.326;-6.298;2024-02-21T06:30:29;0.20;;;0.20;;
61487;SDS011;47351;53.326;-6.298;2024-02-21T06:33:33;0.10;;;0.10;;
61487;SDS011;47351;53.326;-6.298;2024-02-21T06:36:37;0.20;;;0.20;;
61487;SDS011;47351;53.326;-6.298;2024-02-21T06:39:49;0.20;;;0.10;;
61487;SDS011;47351;53.326;-6.298;2024-02-21T06:42:42;0.10;;;0.10;;
61487;SDS011;47351;53.326;-6.298;2024-02-21T06:45:55;0.30;;;0.30;;
61487;SDS011;47351;53.326;-6.298;2024-02-21T06:49:05;0.20;;;0.20;;
61487;SDS011;47351;53.326;-6.298;2024-02-21T06:52:18;0.20;;;0.20;;
61487;SDS011;47351;53.326;-6.298;2024-02-21T06:55:20;0.10;;;0.10;;
61487;SDS011;47351;53.326;-6.298;2024-02-21T06:58:33;0.30;;;0.10;;
61487;SDS011;47351;53.326;-6.298;2024-02-21T07:01:29;0.20;;;0.20;;
61487;SDS011;47351;53.326;-6.298;2024-02-21T07:04:30;0.20;;;0.20;;
61487;SDS011;47351;53.326;-6.298;2024-02-21T07:07:24;0.10;;;0.10;;
61487;SDS011;47351;53.326;-6.298;2024-02-21T07:10:16;0.40;;;0.20;;
61487;SDS011;47351;53.326;-6.298;2024-02-21T07:13:09;0.20;;;0.20;;
61487;SDS011;47351;53.326;-6.298;2024-02-21T07:16:02;0.20;;;0.10;;
61487;SDS011;47351;53.326;-6.298;2024-02-21T07:18:56;0.20;;;0.20;;
61487;SDS011;47351;53.326;-6.298;2024-02-21T07:21:49;0.30;;;0.30;;
61487;SDS011;47351;53.326;-6.298;2024-02-21T07:24:55;0.20;;;0.20;;
61487;SDS011;47351;53.326;-6.298;2024-02-21T07:27:55;0.20;;;0.20;;
61487;SDS011;47351;53.326;-6.298;2024-02-21T07:30:53;0.50;;;0.20;;
61487;SDS011;47351;53.326;-6.298;2024-02-21T07:33:51;0.20;;;0.20;;
61487;SDS011;47351;53.326;-6.298;2024-02-21T07:36:49;0.40;;;0.20;;
61487;SDS011;47351;53.326;-6.298;2024-02-21T07:39:42;0.20;;;0.20;;
61487;SDS011;47351;53.326;-6.298;2024-02-21T07:42:35;0.90;;;0.30;;
61487;SDS011;47351;53.326;-6.298;2024-02-21T07:45:40;0.60;;;0.20;;
61487;SDS011;47351;53.326;-6.298;2024-02-21T07:48:37;0.30;;;0.30;;
61487;SDS011;47351;53.326;-6.298;2024-02-21T07:51:41;0.40;;;0.20;;
61487;SDS011;47351;53.326;-6.298;2024-02-21T07:54:45;0.20;;;0.20;;
61487;SDS011;47351;53.326;-6.298;2024-02-21T07:57:40;0.60;;;0.40;;
61487;SDS011;47351;53.326;-6.298;2024-02-21T08:00:45;0.10;;;0.10;;
61487;SDS011;47351;53.326;-6.298;2024-02-21T08:03:51;0.20;;;0.20;;
61487;SDS011;47351;53.326;-6.298;2024-02-21T08:07:04;1.10;;;0.20;;
61487;SDS011;47351;53.326;-6.298;2024-02-21T08:10:13;0.10;;;0.10;;
61487;SDS011;47351;53.326;-6.298;2024-02-21T08:13:15;0.20;;;0.20;;
61487;SDS011;47351;53.326;-6.298;2024-02-21T08:16:11;0.30;;;0.20;;
61487;SDS011;47351;53.326;-6.298;2024-02-21T08:19:20;0.30;;;0.30;;
61487;SDS011;47351;53.326;-6.298;2024-02-21T08:22:13;0.50;;;0.40;;
61487;SDS011;47351;53.326;-6.298;2024-02-21T08:25:12;1.40;;;0.20;;
61487;SDS011;47351;53.326;-6.298;2024-02-21T08:28:16;0.60;;;0.30;;
61487;SDS011;47351;53.326;-6.298;2024-02-21T08:31:51;0.30;;;0.30;;
61487;SDS011;47351;53.326;-6.298;2024-02-21T08:35:11;1.00;;;0.40;;
61487;SDS011;47351;53.326;-6.298;2024-02-21T08:38:07;0.20;;;0.20;;
61487;SDS011;47351;53.326;-6.298;2024-02-21T08:41:02;0.40;;;0.30;;
61487;SDS011;47351;53.326;-6.298;2024-02-21T08:44:09;0.40;;;0.20;;
61487;SDS011;47351;53.326;-6.298;2024-02-21T08:50:56;0.40;;;0.30;;
61487;SDS011;47351;53.326;-6.298;2024-02-21T08:53:51;2.90;;;0.30;;
61487;SDS011;47351;53.326;-6.298;2024-02-21T08:56:45;1.60;;;0.30;;
61487;SDS011;47351;53.326;-6.298;2024-02-21T08:59:42;0.40;;;0.30;;
61487;SDS011;47351;53.326;-6.298;2024-02-21T09:02:39;0.50;;;0.30;;
61487;SDS011;47351;53.326;-6.298;2024-02-21T09:05:34;0.30;;;0.30;;
61487;SDS011;47351;53.326;-6.298;2024-02-21T09:08:27;0.90;;;0.20;;
61487;SDS011;47351;53.326;-6.298;2024-02-21T09:11:20;0.30;;;0.30;;
61487;SDS011;47351;53.326;-6.298;2024-02-21T09:14:13;0.60;;;0.20;;
61487;SDS011;47351;53.326;-6.298;2024-02-21T09:17:10;1.50;;;0.50;;
61487;SDS011;47351;53.326;-6.298;2024-02-21T09:23:06;1.80;;;0.30;;
61487;SDS011;47351;53.326;-6.298;2024-02-21T09:26:01;0.80;;;0.30;;
61487;SDS011;47351;53.326;-6.298;2024-02-21T09:28:54;1.30;;;0.30;;
61487;SDS011;47351;53.326;-6.298;2024-02-21T09:31:50;0.60;;;0.30;;
61487;SDS011;47351;53.326;-6.298;2024-02-21T09:35:04;1.20;;;0.40;;
61487;SDS011;47351;53.326;-6.298;2024-02-21T09:38:03;0.40;;;0.40;;
61487;SDS011;47351;53.326;-6.298;2024-02-21T09:41:00;0.60;;;0.30;;
61487;SDS011;47351;53.326;-6.298;2024-02-21T09:44:01;1.70;;;0.50;;
61487;SDS011;47351;53.326;-6.298;2024-02-21T09:46:55;0.70;;;0.30;;
61487;SDS011;47351;53.326;-6.298;2024-02-21T09:49:54;0.40;;;0.40;;
61487;SDS011;47351;53.326;-6.298;2024-02-21T09:52:47;23.50;;;3.50;;
61487;SDS011;47351;53.326;-6.298;2024-02-21T09:56:15;0.30;;;0.30;;
61487;SDS011;47351;53.326;-6.298;2024-02-21T09:59:13;0.30;;;0.20;;
61487;SDS011;47351;53.326;-6.298;2024-02-21T10:02:09;0.20;;;0.20;;
61487;SDS011;47351;53.326;-6.298;2024-02-21T10:05:03;0.20;;;0.20;;
61487;SDS011;47351;53.326;-6.298;2024-02-21T10:07:58;0.20;;;0.20;;
61487;SDS011;47351;53.326;-6.298;2024-02-21T10:10:52;0.20;;;0.20;;
61487;SDS011;47351;53.326;-6.298;2024-02-21T10:14:08;0.10;;;0.10;;
61487;SDS011;47351;53.326;-6.298;2024-02-21T10:17:04;0.70;;;0.20;;
61487;SDS011;47351;53.326;-6.298;2024-02-21T10:20:09;0.10;;;0.10;;
61487;SDS011;47351;53.326;-6.298;2024-02-21T10:23:06;0.50;;;0.20;;
61487;SDS011;47351;53.326;-6.298;2024-02-21T10:26:06;0.20;;;0.20;;
61487;SDS011;47351;53.326;-6.298;2024-02-21T10:28:59;0.30;;;0.30;;
61487;SDS011;47351;53.326;-6.298;2024-02-21T10:31:54;0.40;;;0.30;;
61487;SDS011;47351;53.326;-6.298;2024-02-21T10:35:01;1.20;;;0.30;;
61487;SDS011;47351;53.326;-6.298;2024-02-21T10:37:55;0.70;;;0.20;;
61487;SDS011;47351;53.326;-6.298;2024-02-21T10:40:48;1.20;;;0.50;;
61487;SDS011;47351;53.326;-6.298;2024-02-21T10:43:43;0.50;;;0.50;;
61487;SDS011;47351;53.326;-6.298;2024-02-21T10:46:40;0.40;;;0.30;;
61487;SDS011;47351;53.326;-6.298;2024-02-21T10:49:35;1.80;;;0.60;;
61487;SDS011;47351;53.326;-6.298;2024-02-21T10:52:38;1.70;;;0.40;;
61487;SDS011;47351;53.326;-6.298;2024-02-21T10:55:40;1.00;;;0.40;;
61487;SDS011;47351;53.326;-6.298;2024-02-21T10:58:39;0.80;;;0.40;;
61487;SDS011;47351;53.326;-6.298;2024-02-21T11:01:32;0.90;;;0.20;;
61487;SDS011;47351;53.326;-6.298;2024-02-21T11:04:26;0.50;;;0.30;;
61487;SDS011;47351;53.326;-6.298;2024-02-21T11:07:21;0.30;;;0.30;;
61487;SDS011;47351;53.326;-6.298;2024-02-21T11:10:24;1.90;;;0.50;;
61487;SDS011;47351;53.326;-6.298;2024-02-21T11:13:17;1.60;;;0.50;;
61487;SDS011;47351;53.326;-6.298;2024-02-21T11:16:22;0.30;;;0.30;;
61487;SDS011;47351;53.326;-6.298;2024-02-21T11:19:20;0.70;;;0.30;;
61487;SDS011;47351;53.326;-6.298;2024-02-21T11:22:17;0.70;;;0.30;;
61487;SDS011;47351;53.326;-6.298;2024-02-21T11:25:13;0.90;;;0.20;;
61487;SDS011;47351;53.326;-6.298;2024-02-21T11:28:14;1.80;;;0.40;;
61487;SDS011;47351;53.326;-6.298;2024-02-21T11:31:17;0.60;;;0.30;;
61487;SDS011;47351;53.326;-6.298;2024-02-21T11:34:10;1.10;;;0.30;;
61487;SDS011;47351;53.326;-6.298;2024-02-21T11:37:15;0.30;;;0.30;;
61487;SDS011;47351;53.326;-6.298;2024-02-21T11:40:08;1.50;;;0.60;;
61487;SDS011;47351;53.326;-6.298;2024-02-21T11:43:01;2.90;;;0.60;;
61487;SDS011;47351;53.326;-6.298;2024-02-21T11:45:59;0.50;;;0.40;;
61487;SDS011;47351;53.326;-6.298;2024-02-21T11:48:53;2.70;;;0.70;;
61487;SDS011;47351;53.326;-6.298;2024-02-21T11:51:49;0.90;;;0.40;;
61487;SDS011;47351;53.326;-6.298;2024-02-21T11:54:50;1.20;;;0.50;;
61487;SDS011;47351;53.326;-6.298;2024-02-21T11:57:45;1.50;;;0.80;;
61487;SDS011;47351;53.326;-6.298;2024-02-21T12:00:40;1.00;;;0.60;;
61487;SDS011;47351;53.326;-6.298;2024-02-21T12:03:32;0.50;;;0.30;;
61487;SDS011;47351;53.326;-6.298;2024-02-21T12:06:26;0.90;;;0.60;;
61487;SDS011;47351;53.326;-6.298;2024-02-21T12:09:18;0.70;;;0.30;;
61487;SDS011;47351;53.326;-6.298;2024-02-21T12:12:10;1.30;;;0.30;;
61487;SDS011;47351;53.326;-6.298;2024-02-21T12:15:04;2.40;;;0.60;;
61487;SDS011;47351;53.326;-6.298;2024-02-21T12:17:58;3.10;;;0.60;;
61487;SDS011;47351;53.326;-6.298;2024-02-21T12:20:51;2.30;;;0.50;;
61487;SDS011;47351;53.326;-6.298;2024-02-21T12:23:45;1.60;;;0.50;;
61487;SDS011;47351;53.326;-6.298;2024-02-21T12:26:37;1.30;;;0.60;;
61487;SDS011;47351;53.326;-6.298;2024-02-21T12:29:30;1.60;;;0.80;;
61487;SDS011;47351;53.326;-6.298;2024-02-21T12:32:22;1.50;;;0.80;;
61487;SDS011;47351;53.326;-6.298;2024-02-21T12:35:15;3.70;;;0.60;;
61487;SDS011;47351;53.326;-6.298;2024-02-21T12:38:08;2.40;;;0.60;;
61487;SDS011;47351;53.326;-6.298;2024-02-21T12:41:03;3.10;;;0.70;;
61487;SDS011;47351;53.326;-6.298;2024-02-21T12:43:56;1.60;;;0.50;;
61487;SDS011;47351;53.326;-6.298;2024-02-21T12:46:51;3.70;;;1.00;;
61487;SDS011;47351;53.326;-6.298;2024-02-21T12:49:47;25.90;;;2.60;;
61487;SDS011;47351;53.326;-6.298;2024-02-21T12:52:43;5.40;;;1.10;;
61487;SDS011;47351;53.326;-6.298;2024-02-21T12:55:36;2.60;;;0.70;;
61487;SDS011;47351;53.326;-6.298;2024-02-21T12:58:32;4.10;;;1.20;;
61487;SDS011;47351;53.326;-6.298;2024-02-21T13:01:27;6.90;;;1.80;;
61487;SDS011;47351;53.326;-6.298;2024-02-21T13:04:22;2.00;;;0.60;;
61487;SDS011;47351;53.326;-6.298;2024-02-21T13:07:21;3.30;;;0.60;;
61487;SDS011;47351;53.326;-6.298;2024-02-21T13:10:16;3.80;;;0.80;;
61487;SDS011;47351;53.326;-6.298;2024-02-21T13:13:08;3.40;;;0.70;;
61487;SDS011;47351;53.326;-6.298;2024-02-21T13:16:04;2.30;;;0.60;;
61487;SDS011;47351;53.326;-6.298;2024-02-21T13:18:59;3.00;;;0.70;;
61487;SDS011;47351;53.326;-6.298;2024-02-21T13:21:55;4.20;;;0.90;;
61487;SDS011;47351;53.326;-6.298;2024-02-21T13:24:49;3.50;;;0.80;;
61487;SDS011;47351;53.326;-6.298;2024-02-21T13:27:45;4.60;;;0.90;;
61487;SDS011;47351;53.326;-6.298;2024-02-21T13:30:38;5.30;;;0.90;;
61487;SDS011;47351;53.326;-6.298;2024-02-21T13:33:33;5.20;;;1.00;;
61487;SDS011;47351;53.326;-6.298;2024-02-21T13:36:26;2.70;;;0.70;;
61487;SDS011;47351;53.326;-6.298;2024-02-21T13:39:21;3.60;;;0.80;;
61487;SDS011;47351;53.326;-6.298;2024-02-21T13:42:17;5.00;;;1.20;;
61487;SDS011;47351;53.326;-6.298;2024-02-21T13:45:10;5.60;;;0.90;;
61487;SDS011;47351;53.326;-6.298;2024-02-21T13:48:07;3.50;;;0.70;;
61487;SDS011;47351;53.326;-6.298;2024-02-21T13:51:01;2.30;;;0.80;;
61487;SDS011;47351;53.326;-6.298;2024-02-21T13:53:56;2.20;;;0.80;;
61487;SDS011;47351;53.326;-6.298;2024-02-21T13:56:49;3.30;;;0.80;;
61487;SDS011;47351;53.326;-6.298;2024-02-21T13:59:42;2.40;;;0.80;;
61487;SDS011;47351;53.326;-6.298;2024-02-21T14:02:35;3.70;;;1.10;;
61487;SDS011;47351;53.326;-6.298;2024-02-21T14:05:28;4.00;;;0.90;;
61487;SDS011;47351;53.326;-6.298;2024-02-21T14:08:24;3.50;;;0.70;;
61487;SDS011;47351;53.326;-6.298;2024-02-21T14:11:16;5.00;;;1.00;;
61487;SDS011;47351;53.326;-6.298;2024-02-21T14:14:09;2.80;;;0.70;;
61487;SDS011;47351;53.326;-6.298;2024-02-21T14:17:03;3.50;;;0.80;;
61487;SDS011;47351;53.326;-6.298;2024-02-21T14:19:56;2.10;;;0.50;;
61487;SDS011;47351;53.326;-6.298;2024-02-21T14:22:49;1.70;;;0.50;;
61487;SDS011;47351;53.326;-6.298;2024-02-21T14:25:42;3.10;;;0.80;;
61487;SDS011;47351;53.326;-6.298;2024-02-21T14:28:34;6.40;;;0.90;;
61487;SDS011;47351;53.326;-6.298;2024-02-21T14:31:27;6.90;;;1.10;;
61487;SDS011;47351;53.326;-6.298;2024-02-21T14:34:19;5.40;;;1.20;;
61487;SDS011;47351;53.326;-6.298;2024-02-21T14:37:18;8.10;;;1.60;;
61487;SDS011;47351;53.326;-6.298;2024-02-21T14:40:11;5.80;;;1.30;;
61487;SDS011;47351;53.326;-6.298;2024-02-21T14:43:05;8.50;;;1.30;;
61487;SDS011;47351;53.326;-6.298;2024-02-21T14:45:58;5.70;;;1.20;;
61487;SDS011;47351;53.326;-6.298;2024-02-21T14:48:53;5.30;;;1.30;;
61487;SDS011;47351;53.326;-6.298;2024-02-21T14:51:46;5.30;;;1.10;;
61487;SDS011;47351;53.326;-6.298;2024-02-21T14:54:39;7.00;;;1.20;;
61487;SDS011;47351;53.326;-6.298;2024-02-21T14:57:35;4.90;;;1.10;;
61487;SDS011;47351;53.326;-6.298;2024-02-21T15:00:30;6.60;;;1.20;;
61487;SDS011;47351;53.326;-6.298;2024-02-21T15:03:27;7.40;;;1.20;;
61487;SDS011;47351;53.326;-6.298;2024-02-21T15:06:20;7.40;;;1.60;;
61487;SDS011;47351;53.326;-6.298;2024-02-21T15:09:13;6.10;;;1.30;;
61487;SDS011;47351;53.326;-6.298;2024-02-21T15:12:07;9.40;;;1.40;;
61487;SDS011;47351;53.326;-6.298;2024-02-21T15:15:00;11.50;;;1.90;;
61487;SDS011;47351;53.326;-6.298;2024-02-21T15:17:53;7.30;;;1.20;;
61487;SDS011;47351;53.326;-6.298;2024-02-21T15:20:45;5.60;;;1.40;;
61487;SDS011;47351;53.326;-6.298;2024-02-21T15:23:38;8.40;;;1.30;;
61487;SDS011;47351;53.326;-6.298;2024-02-21T15:26:35;4.00;;;1.10;;
61487;SDS011;47351;53.326;-6.298;2024-02-21T15:29:28;7.80;;;1.20;;
61487;SDS011;47351;53.326;-6.298;2024-02-21T15:32:20;6.10;;;1.30;;
61487;SDS011;47351;53.326;-6.298;2024-02-21T15:38:16;5.60;;;1.10;;
61487;SDS011;47351;53.326;-6.298;2024-02-21T15:41:09;5.20;;;1.10;;
61487;SDS011;47351;53.326;-6.298;2024-02-21T15:44:03;6.60;;;1.20;;
61487;SDS011;47351;53.326;-6.298;2024-02-21T15:46:59;5.70;;;0.90;;
61487;SDS011;47351;53.326;-6.298;2024-02-21T15:50:00;6.60;;;0.90;;
61487;SDS011;47351;53.326;-6.298;2024-02-21T15:52:54;4.90;;;1.10;;
61487;SDS011;47351;53.326;-6.298;2024-02-21T15:55:49;7.10;;;1.40;;
61487;SDS011;47351;53.326;-6.298;2024-02-21T15:58:52;3.40;;;0.90;;
61487;SDS011;47351;53.326;-6.298;2024-02-21T16:01:45;4.50;;;1.30;;
61487;SDS011;47351;53.326;-6.298;2024-02-21T16:04:40;3.80;;;1.20;;
61487;SDS011;47351;53.326;-6.298;2024-02-21T16:07:33;5.80;;;1.50;;
61487;SDS011;47351;53.326;-6.298;2024-02-21T16:10:25;7.90;;;2.20;;
61487;SDS011;47351;53.326;-6.298;2024-02-21T16:13:17;4.90;;;1.90;;
61487;SDS011;47351;53.326;-6.298;2024-02-21T16:16:30;5.10;;;1.20;;
61487;SDS011;47351;53.326;-6.298;2024-02-21T16:22:25;5.00;;;1.40;;
61487;SDS011;47351;53.326;-6.298;2024-02-21T16:25:18;3.90;;;1.40;;
61487;SDS011;47351;53.326;-6.298;2024-02-21T16:28:21;6.20;;;1.60;;
61487;SDS011;47351;53.326;-6.298;2024-02-21T16:31:27;5.00;;;1.20;;
61487;SDS011;47351;53.326;-6.298;2024-02-21T16:34:19;5.40;;;1.40;;
61487;SDS011;47351;53.326;-6.298;2024-02-21T16:37:13;5.80;;;1.20;;
61487;SDS011;47351;53.326;-6.298;2024-02-21T16:40:06;5.50;;;2.00;;
61487;SDS011;47351;53.326;-6.298;2024-02-21T16:43:00;6.20;;;2.00;;
61487;SDS011;47351;53.326;-6.298;2024-02-21T16:45:54;7.70;;;2.10;;
61487;SDS011;47351;53.326;-6.298;2024-02-21T16:48:58;6.70;;;1.70;;
61487;SDS011;47351;53.326;-6.298;2024-02-21T16:51:50;5.50;;;1.70;;
61487;SDS011;47351;53.326;-6.298;2024-02-21T16:54:55;9.00;;;2.50;;
61487;SDS011;47351;53.326;-6.298;2024-02-21T16:57:47;5.20;;;1.30;;
61487;SDS011;47351;53.326;-6.298;2024-02-21T17:00:40;3.20;;;1.20;;
61487;SDS011;47351;53.326;-6.298;2024-02-21T17:03:33;7.20;;;1.50;;
61487;SDS011;47351;53.326;-6.298;2024-02-21T17:06:26;6.20;;;1.50;;
61487;SDS011;47351;53.326;-6.298;2024-02-21T17:09:19;7.00;;;1.30;;
61487;SDS011;47351;53.326;-6.298;2024-02-21T17:12:11;7.80;;;1.70;;
61487;SDS011;47351;53.326;-6.298;2024-02-21T17:15:04;5.20;;;1.20;;
61487;SDS011;47351;53.326;-6.298;2024-02-21T17:18:01;7.60;;;1.50;;
61487;SDS011;47351;53.326;-6.298;2024-02-21T17:20:54;6.20;;;1.60;;
61487;SDS011;47351;53.326;-6.298;2024-02-21T17:23:47;6.80;;;1.70;;
61487;SDS011;47351;53.326;-6.298;2024-02-21T17:26:40;6.50;;;1.50;;
61487;SDS011;47351;53.326;-6.298;2024-02-21T17:29:43;6.20;;;1.40;;
61487;SDS011;47351;53.326;-6.298;2024-02-21T17:32:35;7.40;;;1.90;;
61487;SDS011;47351;53.326;-6.298;2024-02-21T17:35:41;4.10;;;1.30;;
61487;SDS011;47351;53.326;-6.298;2024-02-21T17:38:50;6.20;;;1.70;;
61487;SDS011;47351;53.326;-6.298;2024-02-21T17:41:52;6.70;;;2.20;;
61487;SDS011;47351;53.326;-6.298;2024-02-21T17:44:58;9.80;;;2.00;;
61487;SDS011;47351;53.326;-6.298;2024-02-21T17:48:05;6.30;;;1.70;;
61487;SDS011;47351;53.326;-6.298;2024-02-21T17:50:59;9.00;;;3.10;;
61487;SDS011;47351;53.326;-6.298;2024-02-21T17:53:52;7.70;;;2.60;;
61487;SDS011;47351;53.326;-6.298;2024-02-21T17:56:45;7.50;;;2.30;;